sensor_id;sensor_type;location;lat;lon;timestamp;P1;durP1;ratioP1;P2;durP2;ratioP2
11596;SDS011;5854;48.072;16.286;2022-11-15T00:00:58;174.52;;;33.13;;
11596;SDS011;5854;48.072;16.286;2022-11-15T00:03:26;112.55;;;35.05;;
11596;SDS011;5854;48.072;16.286;2022-11-15T00:05:53;159.80;;;33.80;;
11596;SDS011;5854;48.072;16.286;2022-11-15T00:08:21;140.73;;;33.50;;
11596;SDS011;5854;48.072;16.286;2022-11-15T00:11:00;95.75;;;32.33;;
11596;SDS011;5854;48.072;16.286;2022-11-15T00:13:28;115.55;;;34.38;;
11596;SDS011;5854;48.072;16.286;2022-11-15T00:15:56;106.22;;;32.10;;
11596;SDS011;5854;48.072;16.286;2022-11-15T00:18:25;154.05;;;34.63;;
11596;SDS011;5854;48.072;16.286;2022-11-15T00:20:52;121.18;;;32.08;;
11596;SDS011;5854;48.072;16.286;2022-11-15T00:23:20;120.70;;;29.55;;
11596;SDS011;5854;48.072;16.286;2022-11-15T00:25:47;106.55;;;34.80;;
11596;SDS011;5854;48.072;16.286;2022-11-15T00:28:25;132.13;;;32.55;;
11596;SDS011;5854;48.072;16.286;2022-11-15T00:30:52;81.80;;;28.45;;
11596;SDS011;5854;48.072;16.286;2022-11-15T00:33:19;72.40;;;30.25;;
11596;SDS011;5854;48.072;16.286;2022-11-15T00:35:47;84.88;;;31.63;;
11596;SDS011;5854;48.072;16.286;2022-11-15T00:38:14;88.50;;;34.72;;
11596;SDS011;5854;48.072;16.286;2022-11-15T00:40:41;64.95;;;27.40;;
11596;SDS011;5854;48.072;16.286;2022-11-15T00:43:08;78.68;;;30.92;;
11596;SDS011;5854;48.072;16.286;2022-11-15T00:45:37;87.43;;;34.47;;
11596;SDS011;5854;48.072;16.286;2022-11-15T00:48:04;84.25;;;34.97;;
11596;SDS011;5854;48.072;16.286;2022-11-15T00:50:31;96.07;;;33.03;;
11596;SDS011;5854;48.072;16.286;2022-11-15T00:52:59;100.20;;;37.47;;
11596;SDS011;5854;48.072;16.286;2022-11-15T00:55:26;102.55;;;34.78;;
11596;SDS011;5854;48.072;16.286;2022-11-15T00:57:53;95.82;;;31.58;;
11596;SDS011;5854;48.072;16.286;2022-11-15T01:00:20;91.30;;;34.92;;
11596;SDS011;5854;48.072;16.286;2022-11-15T01:02:50;105.55;;;33.83;;
11596;SDS011;5854;48.072;16.286;2022-11-15T01:05:17;95.20;;;36.17;;
11596;SDS011;5854;48.072;16.286;2022-11-15T01:07:44;78.82;;;31.65;;
11596;SDS011;5854;48.072;16.286;2022-11-15T01:10:11;90.13;;;35.47;;
11596;SDS011;5854;48.072;16.286;2022-11-15T01:12:38;90.25;;;34.15;;
11596;SDS011;5854;48.072;16.286;2022-11-15T01:15:06;83.05;;;33.17;;
11596;SDS011;5854;48.072;16.286;2022-11-15T01:17:34;94.68;;;34.17;;
11596;SDS011;5854;48.072;16.286;2022-11-15T01:20:03;94.72;;;37.42;;
11596;SDS011;5854;48.072;16.286;2022-11-15T01:22:31;84.10;;;33.28;;
11596;SDS011;5854;48.072;16.286;2022-11-15T01:24:58;98.93;;;34.65;;
11596;SDS011;5854;48.072;16.286;2022-11-15T01:27:26;114.40;;;34.95;;
11596;SDS011;5854;48.072;16.286;2022-11-15T01:29:53;91.38;;;33.95;;
11596;SDS011;5854;48.072;16.286;2022-11-15T01:32:20;100.70;;;36.38;;
11596;SDS011;5854;48.072;16.286;2022-11-15T01:34:47;90.72;;;32.80;;
11596;SDS011;5854;48.072;16.286;2022-11-15T01:37:16;93.72;;;35.05;;
11596;SDS011;5854;48.072;16.286;2022-11-15T01:39:43;113.45;;;34.17;;
11596;SDS011;5854;48.072;16.286;2022-11-15T01:42:11;91.35;;;32.72;;
11596;SDS011;5854;48.072;16.286;2022-11-15T01:44:43;95.15;;;36.03;;
11596;SDS011;5854;48.072;16.286;2022-11-15T01:47:15;115.53;;;36.67;;
11596;SDS011;5854;48.072;16.286;2022-11-15T01:49:48;101.40;;;34.85;;
11596;SDS011;5854;48.072;16.286;2022-11-15T01:52:21;104.32;;;33.97;;
11596;SDS011;5854;48.072;16.286;2022-11-15T01:54:52;96.18;;;32.83;;
11596;SDS011;5854;48.072;16.286;2022-11-15T01:57:23;116.90;;;36.38;;
11596;SDS011;5854;48.072;16.286;2022-11-15T01:59:50;93.57;;;34.50;;
11596;SDS011;5854;48.072;16.286;2022-11-15T02:02:18;180.93;;;40.03;;
11596;SDS011;5854;48.072;16.286;2022-11-15T02:04:46;133.75;;;36.22;;
11596;SDS011;5854;48.072;16.286;2022-11-15T02:07:14;128.52;;;34.45;;
11596;SDS011;5854;48.072;16.286;2022-11-15T02:09:45;108.13;;;37.67;;
11596;SDS011;5854;48.072;16.286;2022-11-15T02:12:13;165.90;;;38.65;;
11596;SDS011;5854;48.072;16.286;2022-11-15T02:14:44;167.80;;;37.30;;
11596;SDS011;5854;48.072;16.286;2022-11-15T02:17:22;83.35;;;28.17;;
11596;SDS011;5854;48.072;16.286;2022-11-15T02:20:28;126.60;;;32.75;;
11596;SDS011;5854;48.072;16.286;2022-11-15T02:23:29;194.77;;;38.25;;
11596;SDS011;5854;48.072;16.286;2022-11-15T02:30:00;95.70;;;33.92;;
11596;SDS011;5854;48.072;16.286;2022-11-15T02:32:50;123.03;;;32.72;;
11596;SDS011;5854;48.072;16.286;2022-11-15T02:35:26;117.22;;;35.10;;
11596;SDS011;5854;48.072;16.286;2022-11-15T02:38:03;140.40;;;36.03;;
11596;SDS011;5854;48.072;16.286;2022-11-15T02:40:38;137.55;;;34.85;;
11596;SDS011;5854;48.072;16.286;2022-11-15T02:43:12;139.98;;;35.95;;
11596;SDS011;5854;48.072;16.286;2022-11-15T02:46:06;112.28;;;32.95;;
11596;SDS011;5854;48.072;16.286;2022-11-15T02:48:40;115.40;;;34.03;;
11596;SDS011;5854;48.072;16.286;2022-11-15T02:51:09;165.90;;;35.25;;
11596;SDS011;5854;48.072;16.286;2022-11-15T02:53:38;151.88;;;32.78;;
11596;SDS011;5854;48.072;16.286;2022-11-15T02:56:07;174.35;;;34.75;;
11596;SDS011;5854;48.072;16.286;2022-11-15T03:01:48;127.38;;;34.97;;
11596;SDS011;5854;48.072;16.286;2022-11-15T03:04:30;126.32;;;34.88;;
11596;SDS011;5854;48.072;16.286;2022-11-15T03:07:05;108.30;;;34.03;;
11596;SDS011;5854;48.072;16.286;2022-11-15T03:09:39;180.05;;;37.70;;
11596;SDS011;5854;48.072;16.286;2022-11-15T03:12:15;157.10;;;34.22;;
11596;SDS011;5854;48.072;16.286;2022-11-15T03:14:53;205.68;;;35.20;;
11596;SDS011;5854;48.072;16.286;2022-11-15T03:17:27;176.10;;;35.22;;
11596;SDS011;5854;48.072;16.286;2022-11-15T03:19:57;108.38;;;31.88;;
11596;SDS011;5854;48.072;16.286;2022-11-15T03:22:28;187.05;;;36.67;;
11596;SDS011;5854;48.072;16.286;2022-11-15T03:25:02;161.13;;;32.38;;
11596;SDS011;5854;48.072;16.286;2022-11-15T03:27:33;148.45;;;31.65;;
11596;SDS011;5854;48.072;16.286;2022-11-15T03:30:06;145.13;;;31.83;;
11596;SDS011;5854;48.072;16.286;2022-11-15T03:32:37;223.68;;;32.35;;
11596;SDS011;5854;48.072;16.286;2022-11-15T03:35:11;110.95;;;33.30;;
11596;SDS011;5854;48.072;16.286;2022-11-15T03:37:44;207.13;;;34.65;;
11596;SDS011;5854;48.072;16.286;2022-11-15T03:40:18;176.52;;;32.80;;
11596;SDS011;5854;48.072;16.286;2022-11-15T03:42:52;162.90;;;32.70;;
11596;SDS011;5854;48.072;16.286;2022-11-15T03:45:29;128.02;;;31.20;;
11596;SDS011;5854;48.072;16.286;2022-11-15T03:48:05;117.75;;;32.83;;
11596;SDS011;5854;48.072;16.286;2022-11-15T03:50:39;223.57;;;33.33;;
11596;SDS011;5854;48.072;16.286;2022-11-15T03:53:07;232.25;;;32.78;;
11596;SDS011;5854;48.072;16.286;2022-11-15T03:55:35;264.52;;;34.92;;
11596;SDS011;5854;48.072;16.286;2022-11-15T03:58:02;210.80;;;34.60;;
11596;SDS011;5854;48.072;16.286;2022-11-15T04:00:29;217.02;;;32.42;;
11596;SDS011;5854;48.072;16.286;2022-11-15T04:02:57;90.70;;;25.27;;
11596;SDS011;5854;48.072;16.286;2022-11-15T04:05:25;132.57;;;32.78;;
11596;SDS011;5854;48.072;16.286;2022-11-15T04:07:52;201.25;;;33.75;;
11596;SDS011;5854;48.072;16.286;2022-11-15T04:10:19;171.82;;;32.97;;
11596;SDS011;5854;48.072;16.286;2022-11-15T04:12:46;266.00;;;37.05;;
11596;SDS011;5854;48.072;16.286;2022-11-15T04:15:15;211.10;;;33.05;;
11596;SDS011;5854;48.072;16.286;2022-11-15T04:17:45;240.35;;;34.92;;
11596;SDS011;5854;48.072;16.286;2022-11-15T04:20:14;169.38;;;31.25;;
11596;SDS011;5854;48.072;16.286;2022-11-15T04:23:04;116.90;;;32.03;;
11596;SDS011;5854;48.072;16.286;2022-11-15T04:25:51;96.28;;;27.52;;
11596;SDS011;5854;48.072;16.286;2022-11-15T04:28:20;222.32;;;33.85;;
11596;SDS011;5854;48.072;16.286;2022-11-15T04:30:48;232.35;;;34.50;;
11596;SDS011;5854;48.072;16.286;2022-11-15T04:33:15;136.25;;;33.08;;
11596;SDS011;5854;48.072;16.286;2022-11-15T04:35:44;389.65;;;39.67;;
11596;SDS011;5854;48.072;16.286;2022-11-15T04:38:33;106.35;;;28.80;;
11596;SDS011;5854;48.072;16.286;2022-11-15T04:40:59;234.20;;;34.78;;
11596;SDS011;5854;48.072;16.286;2022-11-15T04:43:27;439.65;;;36.22;;
11596;SDS011;5854;48.072;16.286;2022-11-15T04:45:54;264.63;;;34.13;;
11596;SDS011;5854;48.072;16.286;2022-11-15T04:48:21;204.68;;;34.97;;
11596;SDS011;5854;48.072;16.286;2022-11-15T04:50:49;556.60;;;42.90;;
11596;SDS011;5854;48.072;16.286;2022-11-15T04:53:16;407.58;;;36.08;;
11596;SDS011;5854;48.072;16.286;2022-11-15T04:55:45;411.33;;;35.30;;
11596;SDS011;5854;48.072;16.286;2022-11-15T04:58:12;192.43;;;32.28;;
11596;SDS011;5854;48.072;16.286;2022-11-15T05:00:39;406.52;;;35.85;;
11596;SDS011;5854;48.072;16.286;2022-11-15T05:03:08;239.02;;;35.50;;
11596;SDS011;5854;48.072;16.286;2022-11-15T05:05:53;407.27;;;33.72;;
11596;SDS011;5854;48.072;16.286;2022-11-15T05:08:20;463.90;;;38.60;;
11596;SDS011;5854;48.072;16.286;2022-11-15T05:10:49;270.00;;;35.35;;
11596;SDS011;5854;48.072;16.286;2022-11-15T05:13:16;322.98;;;38.08;;
11596;SDS011;5854;48.072;16.286;2022-11-15T05:15:43;378.75;;;38.88;;
11596;SDS011;5854;48.072;16.286;2022-11-15T05:18:11;159.80;;;34.65;;
11596;SDS011;5854;48.072;16.286;2022-11-15T05:20:38;385.58;;;34.95;;
11596;SDS011;5854;48.072;16.286;2022-11-15T05:23:05;221.93;;;36.42;;
11596;SDS011;5854;48.072;16.286;2022-11-15T05:25:32;631.25;;;45.53;;
11596;SDS011;5854;48.072;16.286;2022-11-15T05:28:01;621.05;;;43.53;;
11596;SDS011;5854;48.072;16.286;2022-11-15T05:30:29;512.90;;;41.55;;
11596;SDS011;5854;48.072;16.286;2022-11-15T05:32:56;388.30;;;37.40;;
11596;SDS011;5854;48.072;16.286;2022-11-15T05:35:25;469.00;;;40.92;;
11596;SDS011;5854;48.072;16.286;2022-11-15T05:37:57;418.60;;;38.90;;
11596;SDS011;5854;48.072;16.286;2022-11-15T05:40:24;528.55;;;40.83;;
11596;SDS011;5854;48.072;16.286;2022-11-15T05:42:52;529.20;;;39.45;;
11596;SDS011;5854;48.072;16.286;2022-11-15T05:45:20;550.10;;;40.70;;
11596;SDS011;5854;48.072;16.286;2022-11-15T05:47:48;391.58;;;34.00;;
11596;SDS011;5854;48.072;16.286;2022-11-15T05:50:18;436.60;;;35.10;;
11596;SDS011;5854;48.072;16.286;2022-11-15T05:52:45;440.83;;;32.72;;
11596;SDS011;5854;48.072;16.286;2022-11-15T05:55:13;376.55;;;34.90;;
11596;SDS011;5854;48.072;16.286;2022-11-15T05:57:41;365.05;;;31.55;;
11596;SDS011;5854;48.072;16.286;2022-11-15T06:00:09;449.95;;;36.65;;
11596;SDS011;5854;48.072;16.286;2022-11-15T06:02:38;304.42;;;36.10;;
11596;SDS011;5854;48.072;16.286;2022-11-15T06:05:06;509.88;;;37.88;;
11596;SDS011;5854;48.072;16.286;2022-11-15T06:07:33;451.17;;;36.83;;
11596;SDS011;5854;48.072;16.286;2022-11-15T06:10:01;471.75;;;38.15;;
11596;SDS011;5854;48.072;16.286;2022-11-15T06:12:29;160.40;;;34.25;;
11596;SDS011;5854;48.072;16.286;2022-11-15T06:14:56;456.65;;;39.95;;
11596;SDS011;5854;48.072;16.286;2022-11-15T06:17:23;263.52;;;32.25;;
11596;SDS011;5854;48.072;16.286;2022-11-15T06:22:27;457.60;;;35.92;;
11596;SDS011;5854;48.072;16.286;2022-11-15T06:24:55;351.95;;;36.67;;
11596;SDS011;5854;48.072;16.286;2022-11-15T06:27:22;561.20;;;40.83;;
11596;SDS011;5854;48.072;16.286;2022-11-15T06:29:49;531.10;;;40.75;;
11596;SDS011;5854;48.072;16.286;2022-11-15T06:32:16;203.80;;;33.30;;
11596;SDS011;5854;48.072;16.286;2022-11-15T06:34:46;164.25;;;32.95;;
11596;SDS011;5854;48.072;16.286;2022-11-15T06:37:16;598.88;;;46.28;;
11596;SDS011;5854;48.072;16.286;2022-11-15T06:39:44;484.88;;;39.17;;
11596;SDS011;5854;48.072;16.286;2022-11-15T06:42:12;260.45;;;34.65;;
11596;SDS011;5854;48.072;16.286;2022-11-15T06:44:39;276.88;;;37.03;;
11596;SDS011;5854;48.072;16.286;2022-11-15T06:47:06;183.77;;;35.28;;
11596;SDS011;5854;48.072;16.286;2022-11-15T06:49:33;216.30;;;36.70;;
11596;SDS011;5854;48.072;16.286;2022-11-15T06:52:02;677.70;;;47.65;;
11596;SDS011;5854;48.072;16.286;2022-11-15T06:54:31;521.70;;;41.47;;
11596;SDS011;5854;48.072;16.286;2022-11-15T06:56:59;292.08;;;37.47;;
11596;SDS011;5854;48.072;16.286;2022-11-15T06:59:26;459.45;;;38.90;;
11596;SDS011;5854;48.072;16.286;2022-11-15T07:01:53;308.25;;;34.65;;
11596;SDS011;5854;48.072;16.286;2022-11-15T07:04:20;187.10;;;35.28;;
11596;SDS011;5854;48.072;16.286;2022-11-15T07:06:49;188.25;;;32.35;;
11596;SDS011;5854;48.072;16.286;2022-11-15T07:09:16;416.63;;;36.72;;
11596;SDS011;5854;48.072;16.286;2022-11-15T07:11:43;329.23;;;34.17;;
11596;SDS011;5854;48.072;16.286;2022-11-15T07:14:12;617.97;;;42.38;;
11596;SDS011;5854;48.072;16.286;2022-11-15T07:16:41;581.08;;;38.35;;
11596;SDS011;5854;48.072;16.286;2022-11-15T07:19:08;558.65;;;39.10;;
11596;SDS011;5854;48.072;16.286;2022-11-15T07:21:36;442.58;;;33.85;;
11596;SDS011;5854;48.072;16.286;2022-11-15T07:24:03;168.63;;;33.13;;
11596;SDS011;5854;48.072;16.286;2022-11-15T07:26:31;378.75;;;34.28;;
11596;SDS011;5854;48.072;16.286;2022-11-15T07:28:58;411.63;;;32.17;;
11596;SDS011;5854;48.072;16.286;2022-11-15T07:31:27;378.85;;;36.17;;
11596;SDS011;5854;48.072;16.286;2022-11-15T07:33:54;158.70;;;32.35;;
11596;SDS011;5854;48.072;16.286;2022-11-15T07:36:21;397.27;;;37.92;;
11596;SDS011;5854;48.072;16.286;2022-11-15T07:38:49;384.65;;;39.47;;
11596;SDS011;5854;48.072;16.286;2022-11-15T07:41:16;268.55;;;36.15;;
11596;SDS011;5854;48.072;16.286;2022-11-15T07:43:43;139.85;;;22.55;;
11596;SDS011;5854;48.072;16.286;2022-11-15T07:46:10;238.43;;;31.02;;
11596;SDS011;5854;48.072;16.286;2022-11-15T07:48:38;311.83;;;36.03;;
11596;SDS011;5854;48.072;16.286;2022-11-15T07:51:05;375.60;;;36.08;;
11596;SDS011;5854;48.072;16.286;2022-11-15T07:53:33;402.75;;;39.30;;
11596;SDS011;5854;48.072;16.286;2022-11-15T07:56:00;132.95;;;31.17;;
11596;SDS011;5854;48.072;16.286;2022-11-15T07:58:27;337.70;;;37.22;;
11596;SDS011;5854;48.072;16.286;2022-11-15T08:00:54;247.65;;;33.58;;
11596;SDS011;5854;48.072;16.286;2022-11-15T08:03:21;232.60;;;29.80;;
11596;SDS011;5854;48.072;16.286;2022-11-15T08:05:51;366.48;;;37.40;;
11596;SDS011;5854;48.072;16.286;2022-11-15T08:08:18;240.65;;;32.17;;
11596;SDS011;5854;48.072;16.286;2022-11-15T08:10:45;149.00;;;31.48;;
11596;SDS011;5854;48.072;16.286;2022-11-15T08:13:12;148.13;;;26.58;;
11596;SDS011;5854;48.072;16.286;2022-11-15T08:15:40;184.45;;;32.60;;
11596;SDS011;5854;48.072;16.286;2022-11-15T08:18:09;159.13;;;29.55;;
11596;SDS011;5854;48.072;16.286;2022-11-15T08:20:38;88.47;;;25.10;;
11596;SDS011;5854;48.072;16.286;2022-11-15T08:23:11;149.35;;;30.35;;
11596;SDS011;5854;48.072;16.286;2022-11-15T08:25:39;126.38;;;29.33;;
11596;SDS011;5854;48.072;16.286;2022-11-15T08:28:07;100.90;;;26.38;;
11596;SDS011;5854;48.072;16.286;2022-11-15T08:30:36;97.97;;;27.13;;
11596;SDS011;5854;48.072;16.286;2022-11-15T08:33:09;103.68;;;26.45;;
11596;SDS011;5854;48.072;16.286;2022-11-15T08:35:38;92.90;;;25.17;;
11596;SDS011;5854;48.072;16.286;2022-11-15T08:38:05;99.03;;;24.88;;
11596;SDS011;5854;48.072;16.286;2022-11-15T08:40:34;86.07;;;24.13;;
11596;SDS011;5854;48.072;16.286;2022-11-15T08:43:02;100.82;;;27.48;;
11596;SDS011;5854;48.072;16.286;2022-11-15T08:45:29;78.88;;;25.30;;
11596;SDS011;5854;48.072;16.286;2022-11-15T08:47:57;120.90;;;28.05;;
11596;SDS011;5854;48.072;16.286;2022-11-15T08:50:24;102.97;;;28.08;;
11596;SDS011;5854;48.072;16.286;2022-11-15T08:52:51;87.47;;;26.23;;
11596;SDS011;5854;48.072;16.286;2022-11-15T08:55:18;94.47;;;27.45;;
11596;SDS011;5854;48.072;16.286;2022-11-15T08:57:47;81.68;;;24.65;;
11596;SDS011;5854;48.072;16.286;2022-11-15T09:00:14;58.75;;;21.98;;
11596;SDS011;5854;48.072;16.286;2022-11-15T09:02:44;54.72;;;20.17;;
11596;SDS011;5854;48.072;16.286;2022-11-15T09:05:11;80.63;;;25.73;;
11596;SDS011;5854;48.072;16.286;2022-11-15T09:07:40;119.25;;;27.48;;
11596;SDS011;5854;48.072;16.286;2022-11-15T09:10:08;119.10;;;26.88;;
11596;SDS011;5854;48.072;16.286;2022-11-15T09:12:35;94.68;;;25.88;;
11596;SDS011;5854;48.072;16.286;2022-11-15T09:15:05;99.72;;;27.17;;
11596;SDS011;5854;48.072;16.286;2022-11-15T09:17:34;108.77;;;28.93;;
11596;SDS011;5854;48.072;16.286;2022-11-15T09:20:01;138.88;;;28.33;;
11596;SDS011;5854;48.072;16.286;2022-11-15T09:22:29;127.53;;;26.35;;
11596;SDS011;5854;48.072;16.286;2022-11-15T09:24:56;94.68;;;26.70;;
11596;SDS011;5854;48.072;16.286;2022-11-15T09:27:26;94.60;;;27.85;;
11596;SDS011;5854;48.072;16.286;2022-11-15T09:29:53;167.45;;;29.00;;
11596;SDS011;5854;48.072;16.286;2022-11-15T09:32:22;156.35;;;31.38;;
11596;SDS011;5854;48.072;16.286;2022-11-15T09:34:50;148.98;;;30.90;;
11596;SDS011;5854;48.072;16.286;2022-11-15T09:37:17;140.55;;;31.25;;
11596;SDS011;5854;48.072;16.286;2022-11-15T09:39:47;118.72;;;26.35;;
11596;SDS011;5854;48.072;16.286;2022-11-15T09:45:19;105.90;;;27.25;;
11596;SDS011;5854;48.072;16.286;2022-11-15T09:47:59;79.70;;;27.58;;
11596;SDS011;5854;48.072;16.286;2022-11-15T09:50:52;91.53;;;27.95;;
11596;SDS011;5854;48.072;16.286;2022-11-15T09:53:26;124.28;;;28.20;;
11596;SDS011;5854;48.072;16.286;2022-11-15T09:55:59;97.28;;;25.23;;
11596;SDS011;5854;48.072;16.286;2022-11-15T09:58:31;95.45;;;26.27;;
11596;SDS011;5854;48.072;16.286;2022-11-15T10:01:04;107.32;;;28.70;;
11596;SDS011;5854;48.072;16.286;2022-11-15T10:03:44;157.77;;;29.73;;
11596;SDS011;5854;48.072;16.286;2022-11-15T10:06:14;159.18;;;28.00;;
11596;SDS011;5854;48.072;16.286;2022-11-15T10:08:54;144.13;;;31.52;;
11596;SDS011;5854;48.072;16.286;2022-11-15T10:11:27;167.90;;;29.67;;
11596;SDS011;5854;48.072;16.286;2022-11-15T10:14:00;206.70;;;31.17;;
11596;SDS011;5854;48.072;16.286;2022-11-15T10:19:46;172.13;;;31.17;;
11596;SDS011;5854;48.072;16.286;2022-11-15T10:22:27;225.35;;;30.30;;
11596;SDS011;5854;48.072;16.286;2022-11-15T10:25:10;192.15;;;28.98;;
11596;SDS011;5854;48.072;16.286;2022-11-15T10:27:46;190.15;;;32.72;;
11596;SDS011;5854;48.072;16.286;2022-11-15T10:30:20;247.18;;;33.67;;
11596;SDS011;5854;48.072;16.286;2022-11-15T10:32:48;176.75;;;34.88;;
11596;SDS011;5854;48.072;16.286;2022-11-15T10:35:18;230.18;;;33.17;;
11596;SDS011;5854;48.072;16.286;2022-11-15T10:37:49;260.75;;;36.15;;
11596;SDS011;5854;48.072;16.286;2022-11-15T10:40:18;215.13;;;36.80;;
11596;SDS011;5854;48.072;16.286;2022-11-15T10:42:48;317.38;;;42.70;;
11596;SDS011;5854;48.072;16.286;2022-11-15T10:45:31;215.95;;;35.90;;
11596;SDS011;5854;48.072;16.286;2022-11-15T10:50:51;278.38;;;32.22;;
11596;SDS011;5854;48.072;16.286;2022-11-15T10:53:26;276.70;;;34.38;;
11596;SDS011;5854;48.072;16.286;2022-11-15T10:55:59;261.88;;;35.50;;
11596;SDS011;5854;48.072;16.286;2022-11-15T10:58:38;224.80;;;34.45;;
11596;SDS011;5854;48.072;16.286;2022-11-15T11:01:09;223.50;;;34.83;;
11596;SDS011;5854;48.072;16.286;2022-11-15T11:03:39;192.82;;;37.28;;
11596;SDS011;5854;48.072;16.286;2022-11-15T11:06:11;165.82;;;37.13;;
11596;SDS011;5854;48.072;16.286;2022-11-15T11:08:44;157.73;;;38.05;;
11596;SDS011;5854;48.072;16.286;2022-11-15T11:11:23;178.25;;;37.20;;
11596;SDS011;5854;48.072;16.286;2022-11-15T11:13:50;238.45;;;40.72;;
11596;SDS011;5854;48.072;16.286;2022-11-15T11:19:14;314.08;;;35.90;;
11596;SDS011;5854;48.072;16.286;2022-11-15T11:22:01;222.27;;;35.83;;
11596;SDS011;5854;48.072;16.286;2022-11-15T11:24:34;185.70;;;37.60;;
11596;SDS011;5854;48.072;16.286;2022-11-15T11:30:03;270.20;;;39.83;;
11596;SDS011;5854;48.072;16.286;2022-11-15T11:32:46;187.07;;;39.08;;
11596;SDS011;5854;48.072;16.286;2022-11-15T11:35:34;156.05;;;35.63;;
11596;SDS011;5854;48.072;16.286;2022-11-15T11:41:08;276.85;;;42.97;;
11596;SDS011;5854;48.072;16.286;2022-11-15T11:43:48;477.38;;;40.30;;
11596;SDS011;5854;48.072;16.286;2022-11-15T11:48:57;272.08;;;40.75;;
11596;SDS011;5854;48.072;16.286;2022-11-15T11:51:36;169.90;;;37.10;;
11596;SDS011;5854;48.072;16.286;2022-11-15T11:54:11;156.70;;;34.22;;
11596;SDS011;5854;48.072;16.286;2022-11-15T11:56:44;177.25;;;41.92;;
11596;SDS011;5854;48.072;16.286;2022-11-15T11:59:13;207.30;;;39.97;;
11596;SDS011;5854;48.072;16.286;2022-11-15T12:01:47;132.73;;;34.45;;
11596;SDS011;5854;48.072;16.286;2022-11-15T12:04:16;171.52;;;39.95;;
11596;SDS011;5854;48.072;16.286;2022-11-15T12:06:49;200.02;;;41.05;;
11596;SDS011;5854;48.072;16.286;2022-11-15T12:09:26;219.00;;;42.72;;
11596;SDS011;5854;48.072;16.286;2022-11-15T12:12:01;190.75;;;38.05;;
11596;SDS011;5854;48.072;16.286;2022-11-15T12:14:36;207.07;;;44.13;;
11596;SDS011;5854;48.072;16.286;2022-11-15T12:17:09;260.88;;;43.78;;
11596;SDS011;5854;48.072;16.286;2022-11-15T12:19:37;191.70;;;43.25;;
11596;SDS011;5854;48.072;16.286;2022-11-15T12:22:10;208.95;;;43.92;;
11596;SDS011;5854;48.072;16.286;2022-11-15T12:24:45;177.20;;;41.55;;
11596;SDS011;5854;48.072;16.286;2022-11-15T12:27:18;186.25;;;43.67;;
11596;SDS011;5854;48.072;16.286;2022-11-15T12:29:52;229.18;;;44.63;;
11596;SDS011;5854;48.072;16.286;2022-11-15T12:32:25;178.95;;;42.22;;
11596;SDS011;5854;48.072;16.286;2022-11-15T12:34:55;213.02;;;45.53;;
11596;SDS011;5854;48.072;16.286;2022-11-15T12:43:42;206.00;;;42.42;;
11596;SDS011;5854;48.072;16.286;2022-11-15T12:46:11;201.13;;;43.67;;
11596;SDS011;5854;48.072;16.286;2022-11-15T12:48:54;176.75;;;41.63;;
11596;SDS011;5854;48.072;16.286;2022-11-15T12:57:34;196.23;;;41.92;;
11596;SDS011;5854;48.072;16.286;2022-11-15T13:03:24;147.85;;;40.38;;
11596;SDS011;5854;48.072;16.286;2022-11-15T13:06:01;143.00;;;40.50;;
11596;SDS011;5854;48.072;16.286;2022-11-15T13:08:51;124.82;;;35.90;;
11596;SDS011;5854;48.072;16.286;2022-11-15T13:17:23;122.97;;;36.88;;
11596;SDS011;5854;48.072;16.286;2022-11-15T13:20:12;148.45;;;37.97;;
11596;SDS011;5854;48.072;16.286;2022-11-15T13:22:50;122.13;;;36.83;;
11596;SDS011;5854;48.072;16.286;2022-11-15T13:28:33;120.45;;;37.60;;
11596;SDS011;5854;48.072;16.286;2022-11-15T13:31:13;133.77;;;36.87;;
11596;SDS011;5854;48.072;16.286;2022-11-15T13:33:57;146.70;;;42.83;;
11596;SDS011;5854;48.072;16.286;2022-11-15T13:36:28;131.23;;;40.40;;
11596;SDS011;5854;48.072;16.286;2022-11-15T13:39:00;131.95;;;39.10;;
11596;SDS011;5854;48.072;16.286;2022-11-15T13:41:29;130.30;;;38.72;;
11596;SDS011;5854;48.072;16.286;2022-11-15T13:43:59;110.25;;;34.30;;
11596;SDS011;5854;48.072;16.286;2022-11-15T14:33:34;139.93;;;44.67;;
11596;SDS011;5854;48.072;16.286;2022-11-15T14:36:05;123.18;;;42.28;;
11596;SDS011;5854;48.072;16.286;2022-11-15T14:38:51;119.47;;;41.95;;
11596;SDS011;5854;48.072;16.286;2022-11-15T14:41:22;132.18;;;44.58;;
11596;SDS011;5854;48.072;16.286;2022-11-15T14:47:30;97.80;;;38.13;;
11596;SDS011;5854;48.072;16.286;2022-11-15T14:50:03;101.63;;;41.08;;
11596;SDS011;5854;48.072;16.286;2022-11-15T14:53:12;110.82;;;45.33;;
11596;SDS011;5854;48.072;16.286;2022-11-15T14:55:41;104.38;;;42.05;;
11596;SDS011;5854;48.072;16.286;2022-11-15T14:58:13;104.15;;;41.00;;
11596;SDS011;5854;48.072;16.286;2022-11-15T15:00:41;100.00;;;41.80;;
11596;SDS011;5854;48.072;16.286;2022-11-15T15:03:14;112.53;;;42.65;;
11596;SDS011;5854;48.072;16.286;2022-11-15T15:05:48;93.65;;;38.88;;
11596;SDS011;5854;48.072;16.286;2022-11-15T15:08:15;103.13;;;41.53;;
11596;SDS011;5854;48.072;16.286;2022-11-15T16:05:14;108.78;;;45.97;;
11596;SDS011;5854;48.072;16.286;2022-11-15T16:07:42;106.10;;;43.80;;
11596;SDS011;5854;48.072;16.286;2022-11-15T16:10:16;99.35;;;43.85;;
11596;SDS011;5854;48.072;16.286;2022-11-15T16:15:23;91.20;;;39.05;;
11596;SDS011;5854;48.072;16.286;2022-11-15T16:17:53;86.57;;;39.83;;
11596;SDS011;5854;48.072;16.286;2022-11-15T16:20:28;92.55;;;37.97;;
11596;SDS011;5854;48.072;16.286;2022-11-15T16:23:03;90.13;;;39.67;;
11596;SDS011;5854;48.072;16.286;2022-11-15T16:25:33;92.05;;;38.42;;
11596;SDS011;5854;48.072;16.286;2022-11-15T16:28:08;89.20;;;40.72;;
11596;SDS011;5854;48.072;16.286;2022-11-15T16:30:47;76.30;;;35.70;;
11596;SDS011;5854;48.072;16.286;2022-11-15T16:33:18;84.03;;;37.92;;
11596;SDS011;5854;48.072;16.286;2022-11-15T16:35:49;87.18;;;40.65;;
11596;SDS011;5854;48.072;16.286;2022-11-15T16:38:17;83.47;;;38.38;;
11596;SDS011;5854;48.072;16.286;2022-11-15T16:40:46;89.20;;;38.42;;
11596;SDS011;5854;48.072;16.286;2022-11-15T16:43:14;92.68;;;40.67;;
11596;SDS011;5854;48.072;16.286;2022-11-15T16:45:42;92.45;;;41.17;;
11596;SDS011;5854;48.072;16.286;2022-11-15T16:48:15;80.18;;;38.33;;
11596;SDS011;5854;48.072;16.286;2022-11-15T16:50:51;77.97;;;38.38;;
11596;SDS011;5854;48.072;16.286;2022-11-15T16:53:22;75.47;;;35.55;;
11596;SDS011;5854;48.072;16.286;2022-11-15T16:55:50;79.97;;;37.28;;
11596;SDS011;5854;48.072;16.286;2022-11-15T16:58:18;73.82;;;35.63;;
11596;SDS011;5854;48.072;16.286;2022-11-15T17:00:49;73.47;;;36.35;;
11596;SDS011;5854;48.072;16.286;2022-11-15T17:03:18;79.83;;;37.63;;
11596;SDS011;5854;48.072;16.286;2022-11-15T17:05:47;76.60;;;35.38;;
11596;SDS011;5854;48.072;16.286;2022-11-15T17:08:17;73.82;;;33.70;;
11596;SDS011;5854;48.072;16.286;2022-11-15T17:10:48;70.93;;;32.17;;
11596;SDS011;5854;48.072;16.286;2022-11-15T17:13:16;69.93;;;33.38;;
11596;SDS011;5854;48.072;16.286;2022-11-15T17:15:44;79.90;;;36.28;;